Time;durP1;ratioP1;P1;durP2;ratioP2;P2;SDS_P1;SDS_P2;PMS_P1;PMS_P2;Temp;Humidity;BMP_temperature;BMP_pressure;BME280_temperature;BME280_humidity;BME280_pressure;Samples;Min_cycle;Max_cycle;Signal;HPM_P1;HPM_P2
2022/10/25 00:00:16;;;;;;;11.90;6.73;;;13.10;1.00;;;;;;5076021;28;20400;-72
2022/10/25 00:02:41;;;;;;;8.60;5.33;;;13.00;1.00;;;;;;5075606;28;20202;-72
2022/10/25 00:05:10;;;;;;;11.73;6.83;;;13.00;1.00;;;;;;5058741;28;20217;-75
2022/10/25 00:07:36;;;;;;;11.80;5.73;;;13.00;1.00;;;;;;5074986;28;20201;-71
2022/10/25 00:10:02;;;;;;;11.93;5.70;;;13.00;1.00;;;;;;5075834;28;20406;-72
2022/10/25 00:12:27;;;;;;;9.50;6.37;;;13.00;1.00;;;;;;5075451;28;20185;-75
2022/10/25 00:14:53;;;;;;;9.60;6.00;;;13.00;1.00;;;;;;5074831;28;20591;-71
2022/10/25 00:17:19;;;;;;;14.00;6.03;;;13.00;1.00;;;;;;5066984;28;20206;-75
2022/10/25 00:19:45;;;;;;;8.30;6.00;;;13.10;1.00;;;;;;5055680;28;20420;-72
2022/10/25 00:22:10;;;;;;;13.03;6.00;;;13.10;1.00;;;;;;5070194;28;20573;-74
2022/10/25 00:24:36;;;;;;;8.37;5.80;;;13.20;1.00;;;;;;5074589;28;20794;-74
2022/10/25 00:27:02;;;;;;;9.20;6.43;;;13.20;1.00;;;;;;5075210;28;20296;-75
2022/10/25 00:29:27;;;;;;;11.50;6.33;;;13.20;1.00;;;;;;5075485;28;20208;-71
2022/10/25 00:31:53;;;;;;;9.53;5.70;;;13.30;1.00;;;;;;5074415;28;20185;-74
2022/10/25 00:34:19;;;;;;;14.83;6.93;;;13.30;1.00;;;;;;5074392;28;20166;-75
2022/10/25 00:36:44;;;;;;;9.83;5.60;;;13.30;1.00;;;;;;5075280;28;20197;-74
2022/10/25 00:39:10;;;;;;;7.93;5.50;;;13.30;1.00;;;;;;5073960;28;20257;-75
2022/10/25 00:41:36;;;;;;;10.47;6.17;;;13.30;1.00;;;;;;5075074;28;20190;-72
2022/10/25 00:44:35;;;;;;;7.40;5.10;;;13.40;1.00;;;;;;5073993;28;20174;-74
2022/10/25 00:47:24;;;;;;;8.03;5.90;;;13.40;1.00;;;;;;5074634;28;20273;-71
2022/10/25 00:49:59;;;;;;;9.40;6.03;;;13.50;1.00;;;;;;5074756;28;20421;-72
2022/10/25 00:52:27;;;;;;;11.23;6.50;;;13.50;1.00;;;;;;5074925;28;20387;-74
2022/10/25 00:54:53;;;;;;;9.83;6.60;;;13.40;1.00;;;;;;5073815;28;20409;-72
2022/10/25 00:57:28;;;;;;;10.90;5.93;;;13.40;1.00;;;;;;5075079;28;20441;-71
2022/10/25 00:59:54;;;;;;;15.97;5.90;;;13.40;1.00;;;;;;5073375;28;20403;-72
2022/10/25 01:02:21;;;;;;;5.97;5.13;;;13.50;1.00;;;;;;5074212;28;20963;-74
2022/10/25 01:04:47;;;;;;;19.40;7.17;;;13.50;1.00;;;;;;5073447;28;20166;-73
2022/10/25 01:07:13;;;;;;;7.20;6.03;;;13.50;1.00;;;;;;5074786;28;20428;-75
2022/10/25 01:09:39;;;;;;;10.40;6.07;;;13.50;1.00;;;;;;5074673;28;20383;-72
2022/10/25 01:12:05;;;;;;;17.20;5.73;;;13.40;1.00;;;;;;5074356;28;20174;-74
2022/10/25 01:14:32;;;;;;;17.93;6.10;;;13.40;1.00;;;;;;5065861;28;20482;-74
2022/10/25 01:17:13;;;;;;;13.70;6.50;;;13.40;1.00;;;;;;5074468;28;20401;-74
2022/10/25 01:20:03;;;;;;;9.50;5.97;;;13.50;1.00;;;;;;5074174;28;20391;-74
2022/10/25 01:23:04;;;;;;;10.97;5.03;;;13.40;1.00;;;;;;5073859;28;20456;-74
2022/10/25 01:25:55;;;;;;;14.57;6.07;;;13.50;1.00;;;;;;5055498;28;20418;-74
2022/10/25 01:28:30;;;;;;;9.97;6.20;;;13.40;1.00;;;;;;5058044;28;20404;-73
2022/10/25 01:31:22;;;;;;;8.27;5.23;;;13.50;1.00;;;;;;5070871;28;20425;-74
2022/10/25 01:34:05;;;;;;;11.30;4.83;;;13.40;1.00;;;;;;5073411;28;20417;-74
2022/10/25 01:36:49;;;;;;;15.20;4.63;;;13.50;1.00;;;;;;5054032;28;20404;-75
2022/10/25 01:39:25;;;;;;;8.40;4.63;;;13.40;1.00;;;;;;5055779;28;20376;-72
2022/10/25 01:42:22;;;;;;;8.20;4.93;;;13.40;1.00;;;;;;5068133;28;20817;-72
2022/10/25 01:44:56;;;;;;;9.37;4.80;;;13.40;1.00;;;;;;5058630;28;20411;-74
2022/10/25 01:47:45;;;;;;;9.13;4.47;;;13.30;1.00;;;;;;5072831;28;20412;-70
2022/10/25 01:50:17;;;;;;;10.20;5.00;;;13.20;1.00;;;;;;5073380;28;20391;-74
2022/10/25 01:52:42;;;;;;;8.00;3.87;;;13.20;1.00;;;;;;5089637;28;20383;-75
2022/10/25 01:55:12;;;;;;;10.27;5.20;;;13.10;1.00;;;;;;5065604;28;20759;-74
2022/10/25 01:58:05;;;;;;;5.57;4.20;;;13.10;1.00;;;;;;5073447;28;20308;-75
2022/10/25 02:00:41;;;;;;;7.13;4.60;;;13.10;1.00;;;;;;5073469;28;20417;-71
2022/10/25 02:03:24;;;;;;;14.23;4.70;;;13.10;1.00;;;;;;5073578;28;20428;-72
2022/10/25 02:06:23;;;;;;;12.83;4.07;;;13.10;1.00;;;;;;5072585;28;20501;-77
2022/10/25 02:09:23;;;;;;;10.70;3.70;;;13.00;1.00;;;;;;5068217;28;20739;-71
2022/10/25 02:11:50;;;;;;;8.90;3.90;;;13.00;1.00;;;;;;5072257;28;20411;-75
2022/10/25 02:14:37;;;;;;;7.70;4.47;;;13.00;1.00;;;;;;5072815;28;20371;-74
2022/10/25 02:17:12;;;;;;;8.33;3.90;;;13.00;1.00;;;;;;5068795;28;20425;-74
2022/10/25 02:19:46;;;;;;;6.53;3.70;;;12.90;1.00;;;;;;5057273;28;20415;-74
2022/10/25 02:22:14;;;;;;;6.00;4.13;;;12.90;1.00;;;;;;5073550;28;20418;-74
2022/10/25 02:24:44;;;;;;;8.07;3.60;;;12.90;1.00;;;;;;5067062;28;20460;-74
2022/10/25 02:27:12;;;;;;;6.60;4.17;;;12.90;1.00;;;;;;5053208;28;20504;-72
2022/10/25 02:29:40;;;;;;;8.80;3.87;;;12.90;1.00;;;;;;5072116;28;20541;-76
2022/10/25 02:32:06;;;;;;;16.27;4.60;;;12.90;1.00;;;;;;5073359;28;20892;-72
2022/10/25 02:34:32;;;;;;;8.17;3.90;;;12.90;1.00;;;;;;5071599;28;20456;-72
2022/10/25 02:36:58;;;;;;;12.47;4.50;;;12.80;1.00;;;;;;5067004;28;20454;-75
2022/10/25 02:39:26;;;;;;;8.47;4.30;;;12.90;1.00;;;;;;5056323;28;20177;-76
2022/10/25 02:41:52;;;;;;;7.50;4.73;;;12.80;1.00;;;;;;5073146;28;20458;-74
2022/10/25 02:44:18;;;;;;;5.50;4.30;;;12.70;1.00;;;;;;5072195;28;20391;-75
2022/10/25 02:46:44;;;;;;;11.53;5.60;;;12.70;1.00;;;;;;5073161;28;20486;-73
2022/10/25 02:49:10;;;;;;;14.37;6.13;;;12.70;1.00;;;;;;5072643;28;20538;-75
2022/10/25 02:51:35;;;;;;;11.50;5.23;;;12.70;1.00;;;;;;5071132;28;20174;-73
2022/10/25 02:54:01;;;;;;;12.20;5.80;;;12.60;1.00;;;;;;5072014;28;20569;-73
2022/10/25 02:56:27;;;;;;;10.00;6.63;;;12.60;1.00;;;;;;5071150;28;20197;-77
2022/10/25 02:58:55;;;;;;;13.53;6.73;;;12.60;1.00;;;;;;5053136;28;20695;-74
2022/10/25 03:01:21;;;;;;;9.00;6.47;;;12.60;1.00;;;;;;5071647;28;20193;-75
2022/10/25 03:03:47;;;;;;;7.50;5.70;;;12.60;1.00;;;;;;5071943;28;20410;-77
2022/10/25 03:06:13;;;;;;;12.13;7.53;;;12.60;1.00;;;;;;5071676;28;20480;-76
2022/10/25 03:08:40;;;;;;;9.27;6.70;;;12.50;1.00;;;;;;5073182;28;20662;-73
2022/10/25 03:11:07;;;;;;;12.63;7.23;;;12.50;1.00;;;;;;5072816;28;20423;-75
2022/10/25 03:13:33;;;;;;;12.37;5.90;;;12.50;1.00;;;;;;5072376;28;20380;-75
2022/10/25 03:15:58;;;;;;;9.90;7.10;;;12.50;1.00;;;;;;5071999;28;20419;-71
2022/10/25 03:18:24;;;;;;;12.80;7.83;;;12.60;1.00;;;;;;5071749;28;20398;-71
2022/10/25 03:20:50;;;;;;;11.97;8.07;;;12.60;1.00;;;;;;5069109;28;20674;-74
2022/10/25 03:23:16;;;;;;;13.50;7.43;;;12.60;1.00;;;;;;5072966;28;20177;-74
2022/10/25 03:25:42;;;;;;;11.43;7.40;;;12.60;1.00;;;;;;5071476;28;20201;-74
2022/10/25 03:28:08;;;;;;;12.10;8.20;;;12.70;1.00;;;;;;5073152;28;20400;-74
2022/10/25 03:30:34;;;;;;;13.30;7.50;;;12.60;1.00;;;;;;5071096;28;20185;-72
2022/10/25 03:33:00;;;;;;;14.73;8.13;;;12.70;1.00;;;;;;5066694;28;20210;-72
2022/10/25 03:35:26;;;;;;;14.03;7.80;;;12.70;1.00;;;;;;5061762;28;20471;-74
2022/10/25 03:37:52;;;;;;;19.60;8.40;;;12.70;1.00;;;;;;5072583;28;20178;-72
2022/10/25 03:40:19;;;;;;;19.43;8.70;;;12.70;1.00;;;;;;5072422;28;20439;-73
2022/10/25 03:42:45;;;;;;;14.20;8.20;;;12.80;1.00;;;;;;5072612;28;20503;-77
2022/10/25 03:45:10;;;;;;;13.53;8.37;;;12.80;1.00;;;;;;5071470;28;20877;-77
2022/10/25 03:47:37;;;;;;;14.43;9.67;;;12.80;1.00;;;;;;5071058;28;20182;-76
2022/10/25 03:50:04;;;;;;;14.83;10.03;;;12.80;1.00;;;;;;5067869;28;20171;-77
2022/10/25 03:52:30;;;;;;;14.07;9.00;;;12.80;1.00;;;;;;5058454;28;20424;-75
2022/10/25 03:54:55;;;;;;;26.07;10.27;;;12.90;1.00;;;;;;5075250;28;20386;-71
2022/10/25 03:57:21;;;;;;;12.23;9.50;;;12.90;1.00;;;;;;5076008;28;20178;-74
2022/10/25 03:59:47;;;;;;;16.83;9.90;;;12.90;1.00;;;;;;5076126;28;20173;-74
2022/10/25 04:02:13;;;;;;;14.43;9.20;;;12.90;1.00;;;;;;5059858;28;20249;-71
2022/10/25 04:04:39;;;;;;;13.90;9.90;;;12.90;1.00;;;;;;5073738;28;20185;-72
2022/10/25 04:07:04;;;;;;;14.17;9.77;;;12.90;1.00;;;;;;5075744;28;20412;-74
2022/10/25 04:09:30;;;;;;;15.77;9.20;;;12.90;1.00;;;;;;5075733;28;20167;-76
2022/10/25 04:11:56;;;;;;;18.23;10.37;;;13.00;1.00;;;;;;5075874;28;20174;-76
2022/10/25 04:14:22;;;;;;;26.93;10.50;;;12.90;1.00;;;;;;5074624;28;20176;-72
2022/10/25 04:16:47;;;;;;;19.63;9.80;;;13.00;1.00;;;;;;5061653;28;20199;-74
2022/10/25 04:19:13;;;;;;;23.03;10.97;;;13.00;1.00;;;;;;5069276;28;20232;-72
2022/10/25 04:21:38;;;;;;;13.67;9.63;;;13.10;1.00;;;;;;5075251;28;20194;-77
2022/10/25 04:24:05;;;;;;;20.33;12.10;;;13.10;1.00;;;;;;5073149;28;20193;-76
2022/10/25 04:26:30;;;;;;;17.73;10.97;;;13.10;1.00;;;;;;5075544;28;20209;-74
2022/10/25 04:28:56;;;;;;;16.67;9.77;;;13.10;1.00;;;;;;5075354;28;20897;-75
2022/10/25 04:31:23;;;;;;;22.30;11.63;;;13.10;1.00;;;;;;5070263;28;20183;-76
2022/10/25 04:33:53;;;;;;;15.60;9.27;;;13.10;1.00;;;;;;5062391;28;20178;-76
2022/10/25 04:36:19;;;;;;;25.70;11.33;;;13.10;1.00;;;;;;5075169;28;20430;-75
2022/10/25 04:38:52;;;;;;;19.20;10.60;;;13.10;1.00;;;;;;5074732;28;20399;-74
2022/10/25 04:41:19;;;;;;;29.77;11.80;;;13.10;1.00;;;;;;5075340;28;20448;-76
2022/10/25 04:43:46;;;;;;;19.00;11.00;;;13.10;1.00;;;;;;5070310;28;20465;-75
2022/10/25 04:46:13;;;;;;;17.30;11.00;;;13.10;1.00;;;;;;5055021;28;20392;-74
2022/10/25 04:48:40;;;;;;;14.57;9.23;;;13.10;1.00;;;;;;5069683;28;20412;-72
2022/10/25 04:51:06;;;;;;;21.20;10.90;;;13.20;1.00;;;;;;5075239;28;20400;-76
2022/10/25 04:53:32;;;;;;;16.30;9.73;;;13.20;1.00;;;;;;5074701;28;20431;-75
2022/10/25 04:56:00;;;;;;;15.30;11.10;;;13.20;1.00;;;;;;5072972;28;20436;-75
2022/10/25 04:58:25;;;;;;;21.60;10.97;;;13.10;1.00;;;;;;5073452;28;20170;-73
2022/10/25 05:00:52;;;;;;;26.30;11.33;;;13.10;1.00;;;;;;5074707;28;20462;-73
2022/10/25 05:03:18;;;;;;;19.13;12.37;;;13.20;1.00;;;;;;5073785;28;20399;-73
2022/10/25 05:05:44;;;;;;;25.03;10.63;;;13.20;1.00;;;;;;5074037;28;20511;-72
2022/10/25 05:08:10;;;;;;;19.40;10.30;;;13.20;1.00;;;;;;5074774;28;20499;-72
2022/10/25 05:10:35;;;;;;;16.97;11.30;;;13.20;1.00;;;;;;5074745;28;20565;-72
2022/10/25 05:13:01;;;;;;;21.50;10.10;;;13.20;1.00;;;;;;5069806;28;20673;-72
2022/10/25 05:15:27;;;;;;;16.10;10.23;;;13.20;1.00;;;;;;5073591;28;20190;-75
2022/10/25 05:17:59;;;;;;;22.80;10.63;;;13.30;1.00;;;;;;5073938;28;20170;-72
2022/10/25 05:20:25;;;;;;;18.80;10.30;;;13.30;1.00;;;;;;5074543;28;20372;-75
2022/10/25 05:22:51;;;;;;;19.33;10.67;;;13.30;1.00;;;;;;5073950;28;20448;-76
2022/10/25 05:25:17;;;;;;;14.90;9.60;;;13.30;1.00;;;;;;5073457;28;20399;-72
2022/10/25 05:27:43;;;;;;;21.57;9.87;;;13.30;1.00;;;;;;5073396;28;20262;-74
2022/10/25 05:30:09;;;;;;;15.13;9.83;;;13.30;1.00;;;;;;5074337;28;20186;-72
2022/10/25 05:32:35;;;;;;;15.43;9.80;;;13.30;1.00;;;;;;5073945;28;20639;-73
2022/10/25 05:35:01;;;;;;;20.33;10.80;;;13.30;1.00;;;;;;5071390;28;20810;-73
2022/10/25 05:37:27;;;;;;;14.53;11.67;;;13.30;1.00;;;;;;5073803;28;20409;-74
2022/10/25 05:39:52;;;;;;;15.33;9.30;;;13.40;1.00;;;;;;5071660;28;20186;-74
2022/10/25 05:42:18;;;;;;;13.70;9.73;;;13.30;1.00;;;;;;5072526;28;20525;-75
2022/10/25 05:44:44;;;;;;;17.87;9.33;;;13.40;1.00;;;;;;5072786;28;20170;-74
2022/10/25 05:47:10;;;;;;;15.50;8.97;;;13.40;1.00;;;;;;5073663;28;20194;-73
2022/10/25 05:49:39;;;;;;;16.30;11.13;;;13.40;1.00;;;;;;5073601;28;20584;-74
2022/10/25 05:52:08;;;;;;;18.57;10.43;;;13.30;1.00;;;;;;5072595;28;20399;-71
2022/10/25 05:54:34;;;;;;;20.17;10.10;;;13.30;1.00;;;;;;5055693;28;20444;-72
2022/10/25 05:56:59;;;;;;;11.67;9.20;;;13.30;1.00;;;;;;5053500;28;20399;-74
2022/10/25 05:59:25;;;;;;;21.23;10.60;;;13.40;1.00;;;;;;5070950;28;20403;-74
2022/10/25 06:01:51;;;;;;;21.83;11.83;;;13.40;1.00;;;;;;5072455;28;20616;-73
2022/10/25 06:04:16;;;;;;;20.97;10.07;;;13.40;1.00;;;;;;5072337;28;20261;-75
2022/10/25 06:06:44;;;;;;;16.00;10.77;;;13.40;1.00;;;;;;5072892;28;20202;-79
2022/10/25 06:09:10;;;;;;;20.43;11.30;;;13.30;1.00;;;;;;5073412;28;20473;-78
2022/10/25 06:11:37;;;;;;;13.70;10.00;;;13.30;8.10;;;;;;5071085;28;20408;-78
2022/10/25 06:14:03;;;;;;;16.50;10.90;;;13.30;18.00;;;;;;5066050;28;20423;-78
2022/10/25 06:16:29;;;;;;;18.37;9.80;;;13.30;35.40;;;;;;5073550;28;20418;-68
2022/10/25 06:18:55;;;;;;;16.70;10.27;;;13.30;52.20;;;;;;5072953;28;20420;-80
2022/10/25 06:21:27;;;;;;;20.17;9.90;;;13.30;74.30;;;;;;5072356;28;20638;-67
2022/10/25 06:23:54;;;;;;;17.90;9.43;;;13.20;86.10;;;;;;5067892;28;20170;-68
2022/10/25 06:26:26;;;;;;;19.70;10.43;;;13.30;99.90;;;;;;5073168;28;20964;-69
2022/10/25 06:28:54;;;;;;;21.00;10.60;;;13.20;99.90;;;;;;5073143;28;20419;-68
2022/10/25 06:31:20;;;;;;;17.00;10.80;;;13.20;99.90;;;;;;5073355;28;20404;-76
2022/10/25 06:33:45;;;;;;;15.80;10.57;;;13.30;99.90;;;;;;5071992;28;20439;-68
2022/10/25 06:36:20;;;;;;;18.70;10.63;;;13.30;99.90;;;;;;5053162;28;20873;-67
2022/10/25 06:38:46;;;;;;;25.23;11.80;;;13.30;99.90;;;;;;5065731;28;20173;-68
2022/10/25 06:41:18;;;;;;;28.67;11.67;;;13.30;99.90;;;;;;5072918;28;20448;-75
2022/10/25 06:43:43;;;;;;;19.80;11.60;;;13.20;99.90;;;;;;5067515;28;20450;-69
2022/10/25 06:46:32;;;;;;;19.57;11.53;;;13.30;99.90;;;;;;5066700;28;20460;-68
2022/10/25 06:48:58;;;;;;;23.33;11.83;;;13.30;99.90;;;;;;5052931;28;20392;-74
2022/10/25 06:51:26;;;;;;;17.47;11.60;;;13.30;99.90;;;;;;5061506;28;20437;-74
2022/10/25 06:53:56;;;;;;;19.23;11.23;;;13.40;99.90;;;;;;5067685;28;20405;-68
2022/10/25 06:56:22;;;;;;;33.47;13.23;;;13.40;99.90;;;;;;5053236;28;20794;-74
2022/10/25 06:58:48;;;;;;;32.73;11.90;;;13.40;99.90;;;;;;5053006;28;20401;-74
2022/10/25 07:01:15;;;;;;;18.03;11.20;;;13.40;99.90;;;;;;5068517;28;20457;-75
2022/10/25 07:03:42;;;;;;;13.20;9.77;;;13.40;99.90;;;;;;5051856;28;20663;-68
2022/10/25 07:06:10;;;;;;;19.70;11.10;;;13.50;99.90;;;;;;5052507;28;20453;-74
2022/10/25 07:08:38;;;;;;;18.50;12.53;;;13.50;99.90;;;;;;5051867;28;20906;-68
2022/10/25 07:11:04;;;;;;;16.33;10.27;;;13.50;99.90;;;;;;5060581;28;20772;-67
2022/10/25 07:13:31;;;;;;;21.17;10.83;;;13.50;99.90;;;;;;5072806;28;20885;-69
2022/10/25 07:16:05;;;;;;;24.07;12.57;;;13.60;99.90;;;;;;5072559;28;20441;-68
2022/10/25 07:18:32;;;;;;;20.90;10.50;;;13.60;99.90;;;;;;5072887;28;20491;-74
2022/10/25 07:21:03;;;;;;;20.47;11.50;;;13.60;99.90;;;;;;5072423;28;20889;-74
2022/10/25 07:23:29;;;;;;;24.60;11.70;;;13.60;99.90;;;;;;5072771;28;20400;-69
2022/10/25 07:25:56;;;;;;;21.97;11.40;;;13.60;99.90;;;;;;5068293;28;20985;-68
2022/10/25 07:28:22;;;;;;;22.93;11.50;;;13.60;99.90;;;;;;5056729;28;20501;-74
2022/10/25 07:30:47;;;;;;;18.77;11.20;;;13.70;99.90;;;;;;5056582;28;21001;-68
2022/10/25 07:33:16;;;;;;;20.87;10.13;;;13.70;99.90;;;;;;5056554;28;20738;-68
2022/10/25 07:35:46;;;;;;;21.10;12.17;;;13.70;99.90;;;;;;5055723;28;20195;-75
2022/10/25 07:38:13;;;;;;;23.37;11.10;;;13.70;99.90;;;;;;5055302;28;20409;-75
2022/10/25 07:40:39;;;;;;;20.97;11.30;;;13.80;99.90;;;;;;5076493;28;20912;-68
2022/10/25 07:43:05;;;;;;;20.20;12.00;;;13.80;99.90;;;;;;5076224;28;20971;-69
2022/10/25 07:45:30;;;;;;;28.60;11.40;;;13.80;99.90;;;;;;5075523;28;20429;-68
2022/10/25 07:47:56;;;;;;;23.27;11.83;;;13.80;99.90;;;;;;5076185;28;20194;-74
2022/10/25 07:50:22;;;;;;;25.07;11.70;;;13.80;99.90;;;;;;5076350;28;20170;-74
2022/10/25 07:52:48;;;;;;;22.53;11.87;;;13.80;99.90;;;;;;5075905;28;20653;-72
2022/10/25 07:55:13;;;;;;;19.57;11.33;;;13.80;99.90;;;;;;5074545;28;20444;-74
2022/10/25 07:57:39;;;;;;;26.33;12.23;;;13.90;99.90;;;;;;5075518;28;20884;-71
2022/10/25 08:00:06;;;;;;;23.90;10.90;;;13.90;99.90;;;;;;5075972;28;20154;-73
2022/10/25 08:02:32;;;;;;;18.67;10.53;;;13.90;99.90;;;;;;5074614;28;20293;-74
2022/10/25 08:04:58;;;;;;;15.43;10.87;;;13.90;99.90;;;;;;5073118;28;20605;-74
2022/10/25 08:07:23;;;;;;;20.63;12.07;;;13.90;99.90;;;;;;5076023;28;20207;-68
2022/10/25 08:09:49;;;;;;;15.90;10.23;;;13.90;99.90;;;;;;5076031;28;20223;-70
2022/10/25 08:12:14;;;;;;;18.77;9.67;;;14.00;99.90;;;;;;5075917;28;20257;-74
2022/10/25 08:14:40;;;;;;;20.70;12.90;;;13.90;99.90;;;;;;5056863;28;20187;-75
2022/10/25 08:17:06;;;;;;;14.20;10.07;;;13.90;99.90;;;;;;5055332;28;20201;-75
2022/10/25 08:19:32;;;;;;;21.97;11.03;;;14.00;99.90;;;;;;5055767;28;20249;-74
2022/10/25 08:21:57;;;;;;;18.93;9.50;;;14.10;99.90;;;;;;5055371;28;20457;-71
2022/10/25 08:24:24;;;;;;;15.70;9.27;;;14.10;99.90;;;;;;5054679;28;20632;-74
2022/10/25 08:26:50;;;;;;;19.87;9.00;;;14.10;99.90;;;;;;5055457;28;20199;-75
2022/10/25 08:29:16;;;;;;;24.03;9.83;;;14.10;99.90;;;;;;5069875;28;20464;-68
2022/10/25 08:31:41;;;;;;;11.50;8.30;;;14.10;99.90;;;;;;5074526;28;20185;-68
2022/10/25 08:34:07;;;;;;;12.67;7.60;;;14.20;99.90;;;;;;5074468;28;20928;-74
2022/10/25 08:36:33;;;;;;;12.27;9.00;;;14.30;99.90;;;;;;5074108;28;20248;-74
2022/10/25 08:38:58;;;;;;;15.80;9.10;;;14.30;99.90;;;;;;5075217;28;20178;-76
2022/10/25 08:41:47;;;;;;;13.10;8.97;;;14.30;99.90;;;;;;5075183;28;20194;-74
2022/10/25 08:44:19;;;;;;;16.87;8.40;;;14.30;99.90;;;;;;5056599;28;20708;-73
2022/10/25 08:47:03;;;;;;;18.03;10.50;;;14.30;99.90;;;;;;5055248;28;20925;-68
2022/10/25 08:49:52;;;;;;;17.73;8.60;;;14.30;99.90;;;;;;5055226;28;20500;-76
2022/10/25 08:52:25;;;;;;;18.07;8.67;;;14.40;99.90;;;;;;5065762;28;20444;-70
2022/10/25 08:54:51;;;;;;;13.50;8.70;;;14.40;99.90;;;;;;5074242;28;20396;-70
2022/10/25 08:57:24;;;;;;;19.23;8.50;;;14.40;99.90;;;;;;5073560;28;20479;-71
2022/10/25 08:59:54;;;;;;;13.63;8.70;;;14.40;99.90;;;;;;5075021;28;20408;-76
2022/10/25 09:02:44;;;;;;;17.50;8.50;;;14.40;99.90;;;;;;5074133;28;20456;-75
2022/10/25 09:05:22;;;;;;;15.43;8.90;;;14.40;99.90;;;;;;5054102;28;20445;-71
2022/10/25 09:08:09;;;;;;;17.43;8.50;;;14.40;99.90;;;;;;5073685;28;20507;-70
2022/10/25 09:10:53;;;;;;;13.07;9.53;;;14.50;99.90;;;;;;5073882;28;20431;-76
2022/10/25 09:13:21;;;;;;;12.70;8.80;;;14.50;99.90;;;;;;5072708;28;20486;-78
2022/10/25 09:16:20;;;;;;;17.03;8.30;;;14.60;99.90;;;;;;5054011;28;20945;-71
2022/10/25 09:18:54;;;;;;;11.37;7.83;;;14.70;99.90;;;;;;5055207;28;20452;-75
2022/10/25 09:21:34;;;;;;;12.20;9.53;;;14.70;99.90;;;;;;5074717;28;20818;-70
2022/10/25 09:24:18;;;;;;;19.13;8.80;;;14.70;97.20;;;;;;5071329;28;20432;-70
2022/10/25 09:26:55;;;;;;;22.33;9.33;;;14.70;91.00;;;;;;5074215;28;20416;-71
2022/10/25 09:29:29;;;;;;;15.03;8.57;;;14.70;87.70;;;;;;5072799;28;20428;-73
2022/10/25 09:31:58;;;;;;;10.43;7.90;;;14.70;86.50;;;;;;5073406;28;20394;-70
2022/10/25 09:34:28;;;;;;;12.37;7.47;;;14.70;84.70;;;;;;5072347;28;20417;-72
2022/10/25 09:37:00;;;;;;;13.40;9.07;;;14.70;84.20;;;;;;5074069;28;20416;-70
2022/10/25 09:39:45;;;;;;;12.00;7.73;;;14.70;81.50;;;;;;5073224;28;20949;-71
2022/10/25 09:42:26;;;;;;;18.87;8.77;;;14.60;73.30;;;;;;5071004;28;20458;-75
2022/10/25 09:45:00;;;;;;;14.60;7.20;;;14.60;84.00;;;;;;5061213;28;20395;-76
2022/10/25 09:47:42;;;;;;;10.97;6.93;;;14.60;73.80;;;;;;5072674;28;20412;-71
2022/10/25 09:50:33;;;;;;;18.77;8.23;;;14.70;84.20;;;;;;5071268;28;20943;-76
2022/10/25 09:53:12;;;;;;;10.13;7.20;;;14.90;86.10;;;;;;5070936;28;20470;-75
2022/10/25 09:55:47;;;;;;;13.23;6.87;;;15.00;67.60;;;;;;5072526;28;20427;-74
2022/10/25 09:58:19;;;;;;;12.80;6.37;;;14.90;32.10;;;;;;5073807;28;20503;-75
2022/10/25 10:00:45;;;;;;;12.17;5.43;;;14.90;11.20;;;;;;5087614;28;20433;-72
2022/10/25 10:03:12;;;;;;;12.40;6.53;;;14.90;15.70;;;;;;5071610;28;20997;-70
2022/10/25 10:05:56;;;;;;;7.43;5.93;;;14.90;1.00;;;;;;5072695;28;20807;-71
2022/10/25 10:08:23;;;;;;;13.53;7.30;;;14.70;1.00;;;;;;5073498;28;20421;-71
2022/10/25 10:10:51;;;;;;;8.27;5.50;;;14.70;1.00;;;;;;5073417;28;20425;-72
2022/10/25 10:13:27;;;;;;;13.13;6.33;;;14.60;1.00;;;;;;5073664;28;20869;-70
2022/10/25 10:15:56;;;;;;;10.77;6.53;;;14.70;1.00;;;;;;5071635;28;20506;-72
2022/10/25 10:18:26;;;;;;;11.17;6.33;;;14.80;1.00;;;;;;5072997;28;20538;-73
2022/10/25 10:21:02;;;;;;;12.00;6.33;;;14.80;1.00;;;;;;5073129;28;20420;-73
2022/10/25 10:23:41;;;;;;;10.40;4.77;;;14.90;2.60;;;;;;5073369;28;20412;-72
2022/10/25 10:26:30;;;;;;;5.13;4.60;;;14.90;1.00;;;;;;5073125;28;20448;-75
2022/10/25 10:29:10;;;;;;;15.93;6.20;;;14.80;1.00;;;;;;5056776;28;20437;-75
2022/10/25 10:31:42;;;;;;;7.83;4.97;;;14.80;1.00;;;;;;5073560;28;20412;-75
2022/10/25 10:34:29;;;;;;;7.10;4.73;;;14.80;1.00;;;;;;5070457;28;20440;-76
2022/10/25 10:37:22;;;;;;;10.03;4.83;;;14.70;1.00;;;;;;5072835;28;20446;-75
2022/10/25 10:39:49;;;;;;;13.80;4.70;;;14.70;1.00;;;;;;5073235;28;20419;-75
2022/10/25 10:42:17;;;;;;;8.27;4.30;;;14.70;1.00;;;;;;5073268;28;20446;-73
2022/10/25 10:45:06;;;;;;;6.00;3.63;;;14.80;1.00;;;;;;5072085;28;20405;-75
2022/10/25 10:47:50;;;;;;;8.83;4.63;;;14.90;1.00;;;;;;5073095;28;20405;-75
2022/10/25 10:50:19;;;;;;;9.47;3.80;;;14.80;1.00;;;;;;5067691;28;20814;-76
2022/10/25 10:52:47;;;;;;;7.23;3.80;;;14.90;1.00;;;;;;5063213;28;20450;-74
2022/10/25 10:55:44;;;;;;;10.70;4.57;;;14.90;1.00;;;;;;5066365;28;20487;-74
2022/10/25 10:58:21;;;;;;;9.57;4.20;;;14.90;1.00;;;;;;5060347;28;20520;-72
2022/10/25 11:00:57;;;;;;;6.10;3.33;;;14.90;1.00;;;;;;5074700;28;20423;-73
2022/10/25 11:03:41;;;;;;;6.33;3.20;;;14.90;1.00;;;;;;5076498;28;20420;-76
2022/10/25 11:06:25;;;;;;;5.57;2.73;;;14.90;1.00;;;;;;5077029;28;20471;-73
2022/10/25 11:09:08;;;;;;;10.37;2.77;;;14.90;1.00;;;;;;5068929;28;20431;-75
2022/10/25 11:11:34;;;;;;;11.63;5.20;;;14.90;1.00;;;;;;5056415;28;20389;-74
2022/10/25 11:14:20;;;;;;;5.43;3.33;;;15.00;1.00;;;;;;5073219;28;20422;-73
2022/10/25 11:16:58;;;;;;;8.07;4.03;;;15.00;1.00;;;;;;5077071;28;20724;-73
2022/10/25 11:19:29;;;;;;;3.77;2.60;;;14.90;1.00;;;;;;5056854;28;20451;-73
2022/10/25 11:22:27;;;;;;;11.40;3.43;;;14.80;1.00;;;;;;5056737;28;20488;-75
2022/10/25 11:25:11;;;;;;;13.23;3.20;;;14.80;1.00;;;;;;5055943;28;20429;-74
2022/10/25 11:28:07;;;;;;;8.77;3.20;;;14.70;1.00;;;;;;5061873;28;20451;-72
2022/10/25 11:31:00;;;;;;;7.80;2.33;;;14.70;1.00;;;;;;5076227;28;20407;-75
2022/10/25 11:33:43;;;;;;;8.43;3.00;;;14.70;1.00;;;;;;5074870;28;20932;-75
2022/10/25 11:37:00;;;;;;;6.40;2.80;;;14.80;1.00;;;;;;5076559;28;20497;-73
2022/10/25 11:39:41;;;;;;;3.40;2.70;;;14.80;1.00;;;;;;5039757;28;20816;-75
2022/10/25 11:42:34;;;;;;;9.13;3.37;;;14.80;1.00;;;;;;5055307;28;20441;-73
2022/10/25 11:45:27;;;;;;;9.13;2.73;;;14.80;1.00;;;;;;5055430;28;20762;-75
2022/10/25 11:48:10;;;;;;;4.80;3.40;;;14.70;1.00;;;;;;5060139;28;20486;-73
2022/10/25 11:50:52;;;;;;;7.47;2.77;;;14.70;1.00;;;;;;5056435;28;20731;-75
2022/10/25 11:53:30;;;;;;;6.87;2.53;;;14.70;1.00;;;;;;5080037;28;20981;-77
2022/10/25 11:56:24;;;;;;;8.40;2.77;;;14.80;1.00;;;;;;5075408;28;20412;-75
2022/10/25 11:59:02;;;;;;;5.90;3.40;;;14.90;1.00;;;;;;5070737;28;20428;-74
2022/10/25 12:01:59;;;;;;;6.33;2.70;;;15.10;1.00;;;;;;5054813;28;20456;-76
2022/10/25 12:04:43;;;;;;;6.60;3.07;;;15.10;1.00;;;;;;5060566;28;20436;-75
2022/10/25 12:07:31;;;;;;;4.40;2.20;;;15.10;1.00;;;;;;5075926;28;20419;-73
2022/10/25 12:10:39;;;;;;;5.10;2.57;;;15.20;1.00;;;;;;5068426;28;20947;-74
2022/10/25 12:13:10;;;;;;;4.90;3.00;;;15.10;1.00;;;;;;5054034;28;20427;-75
2022/10/25 12:15:45;;;;;;;3.00;2.50;;;15.20;1.00;;;;;;5075010;28;20444;-76
2022/10/25 12:18:35;;;;;;;5.83;2.27;;;15.30;99.90;;;;;;5073933;28;20852;-74
2022/10/25 12:21:02;;;;;;;5.73;3.17;;;15.50;99.90;;;;;;5074136;28;20404;-74
2022/10/25 12:23:38;;;;;;;12.83;2.63;;;15.50;99.90;;;;;;5075383;28;20455;-75
2022/10/25 12:26:32;;;;;;;3.70;1.87;;;15.90;99.90;;;;;;5075564;28;20826;-74
2022/10/25 12:29:01;;;;;;;8.37;2.60;;;16.20;99.90;;;;;;5074967;28;20426;-74
2022/10/25 12:31:59;;;;;;;6.07;2.30;;;16.30;99.90;;;;;;5067071;28;20438;-72
2022/10/25 12:34:46;;;;;;;5.30;2.60;;;16.30;99.90;;;;;;5054236;28;20429;-73
2022/10/25 12:37:23;;;;;;;12.87;3.23;;;16.20;99.90;;;;;;5073898;28;20808;-74
2022/10/25 12:39:50;;;;;;;4.20;2.37;;;16.30;99.90;;;;;;5068098;28;20408;-76
2022/10/25 12:42:16;;;;;;;6.00;2.73;;;16.10;99.90;;;;;;5074255;28;20801;-71
2022/10/25 12:45:00;;;;;;;12.97;3.53;;;15.90;99.90;;;;;;5069655;28;20413;-75
2022/10/25 12:48:05;;;;;;;8.33;2.73;;;15.60;99.90;;;;;;5072674;28;20193;-74
2022/10/25 12:50:48;;;;;;;10.63;3.00;;;15.90;99.90;;;;;;5033154;28;20520;-75
2022/10/25 12:53:41;;;;;;;8.77;2.20;;;15.90;99.90;;;;;;5055456;28;20780;-74
2022/10/25 12:56:33;;;;;;;8.77;2.53;;;15.70;99.90;;;;;;5070005;28;21004;-72
2022/10/25 12:59:17;;;;;;;7.30;2.47;;;15.60;99.90;;;;;;5054822;28;20405;-71
2022/10/25 13:02:08;;;;;;;7.77;3.00;;;15.60;99.90;;;;;;5072977;28;20460;-74
2022/10/25 13:05:05;;;;;;;4.30;2.03;;;15.40;99.90;;;;;;5053861;28;20409;-75
2022/10/25 13:07:34;;;;;;;8.20;2.40;;;15.40;99.90;;;;;;5058876;28;20421;-73
2022/10/25 13:10:14;;;;;;;6.80;2.13;;;15.40;99.90;;;;;;5073438;28;20420;-73